sensor_id;sensor_type;location;lat;lon;timestamp;P1;durP1;ratioP1;P2;durP2;ratioP2
3543;SDS011;1786;52.870;9.578;2023-07-20T00:00:58;1.83;;;0.87;;
3543;SDS011;1786;52.870;9.578;2023-07-20T00:03:24;0.80;;;0.80;;
3543;SDS011;1786;52.870;9.578;2023-07-20T00:05:51;0.90;;;0.83;;
3543;SDS011;1786;52.870;9.578;2023-07-20T00:08:18;1.00;;;0.90;;
3543;SDS011;1786;52.870;9.578;2023-07-20T00:10:45;2.30;;;0.87;;
3543;SDS011;1786;52.870;9.578;2023-07-20T00:13:12;0.90;;;0.73;;
3543;SDS011;1786;52.870;9.578;2023-07-20T00:15:38;0.90;;;0.90;;
3543;SDS011;1786;52.870;9.578;2023-07-20T00:18:06;3.20;;;0.93;;
3543;SDS011;1786;52.870;9.578;2023-07-20T00:20:33;0.90;;;0.90;;
3543;SDS011;1786;52.870;9.578;2023-07-20T00:23:00;0.90;;;0.90;;
3543;SDS011;1786;52.870;9.578;2023-07-20T00:25:26;0.80;;;0.80;;
3543;SDS011;1786;52.870;9.578;2023-07-20T00:27:53;0.70;;;0.70;;
3543;SDS011;1786;52.870;9.578;2023-07-20T00:30:20;0.90;;;0.90;;
3543;SDS011;1786;52.870;9.578;2023-07-20T00:32:46;0.80;;;0.80;;
3543;SDS011;1786;52.870;9.578;2023-07-20T00:35:14;2.50;;;0.80;;
3543;SDS011;1786;52.870;9.578;2023-07-20T00:37:41;1.00;;;0.70;;
3543;SDS011;1786;52.870;9.578;2023-07-20T00:40:08;1.17;;;0.87;;
3543;SDS011;1786;52.870;9.578;2023-07-20T00:42:35;0.67;;;0.67;;
3543;SDS011;1786;52.870;9.578;2023-07-20T00:45:02;1.53;;;0.90;;
3543;SDS011;1786;52.870;9.578;2023-07-20T00:47:29;3.03;;;0.80;;
3543;SDS011;1786;52.870;9.578;2023-07-20T00:49:58;0.67;;;0.67;;
3543;SDS011;1786;52.870;9.578;2023-07-20T00:52:25;0.90;;;0.90;;
3543;SDS011;1786;52.870;9.578;2023-07-20T00:54:54;0.83;;;0.83;;
3543;SDS011;1786;52.870;9.578;2023-07-20T00:57:22;1.33;;;0.80;;
3543;SDS011;1786;52.870;9.578;2023-07-20T00:59:51;1.00;;;1.00;;
3543;SDS011;1786;52.870;9.578;2023-07-20T01:02:18;0.80;;;0.80;;
3543;SDS011;1786;52.870;9.578;2023-07-20T01:04:45;1.00;;;0.80;;
3543;SDS011;1786;52.870;9.578;2023-07-20T01:07:17;1.07;;;1.03;;
3543;SDS011;1786;52.870;9.578;2023-07-20T01:09:58;0.80;;;0.80;;
3543;SDS011;1786;52.870;9.578;2023-07-20T01:12:41;1.13;;;1.00;;
3543;SDS011;1786;52.870;9.578;2023-07-20T01:15:10;2.17;;;1.10;;
3543;SDS011;1786;52.870;9.578;2023-07-20T01:17:37;1.30;;;1.00;;
3543;SDS011;1786;52.870;9.578;2023-07-20T01:20:08;1.00;;;0.97;;
3543;SDS011;1786;52.870;9.578;2023-07-20T01:22:46;0.60;;;0.60;;
3543;SDS011;1786;52.870;9.578;2023-07-20T01:28:29;2.40;;;1.00;;
3543;SDS011;1786;52.870;9.578;2023-07-20T01:31:17;1.20;;;1.20;;
3543;SDS011;1786;52.870;9.578;2023-07-20T01:33:50;0.73;;;0.73;;
3543;SDS011;1786;52.870;9.578;2023-07-20T01:36:18;0.97;;;0.97;;
3543;SDS011;1786;52.870;9.578;2023-07-20T01:38:46;1.43;;;1.10;;
3543;SDS011;1786;52.870;9.578;2023-07-20T01:41:13;1.20;;;1.17;;
3543;SDS011;1786;52.870;9.578;2023-07-20T01:43:42;1.27;;;1.10;;
3543;SDS011;1786;52.870;9.578;2023-07-20T01:46:08;1.10;;;1.00;;
3543;SDS011;1786;52.870;9.578;2023-07-20T01:48:35;1.30;;;1.20;;
3543;SDS011;1786;52.870;9.578;2023-07-20T01:51:03;1.30;;;1.20;;
3543;SDS011;1786;52.870;9.578;2023-07-20T01:53:29;1.10;;;1.00;;
3543;SDS011;1786;52.870;9.578;2023-07-20T01:55:56;1.03;;;1.03;;
3543;SDS011;1786;52.870;9.578;2023-07-20T01:58:23;1.10;;;1.10;;
3543;SDS011;1786;52.870;9.578;2023-07-20T02:00:51;1.17;;;1.03;;
3543;SDS011;1786;52.870;9.578;2023-07-20T02:03:18;1.30;;;1.30;;
3543;SDS011;1786;52.870;9.578;2023-07-20T02:05:45;2.07;;;1.87;;
3543;SDS011;1786;52.870;9.578;2023-07-20T02:08:12;2.60;;;1.10;;
3543;SDS011;1786;52.870;9.578;2023-07-20T02:10:38;1.63;;;1.30;;
3543;SDS011;1786;52.870;9.578;2023-07-20T02:13:05;2.30;;;1.30;;
3543;SDS011;1786;52.870;9.578;2023-07-20T02:15:32;1.17;;;1.17;;
3543;SDS011;1786;52.870;9.578;2023-07-20T02:17:59;1.00;;;1.00;;
3543;SDS011;1786;52.870;9.578;2023-07-20T02:20:25;1.50;;;1.50;;
3543;SDS011;1786;52.870;9.578;2023-07-20T02:22:53;1.60;;;1.50;;
3543;SDS011;1786;52.870;9.578;2023-07-20T02:25:20;2.30;;;2.10;;
3543;SDS011;1786;52.870;9.578;2023-07-20T02:27:47;2.97;;;2.00;;
3543;SDS011;1786;52.870;9.578;2023-07-20T02:30:14;1.63;;;1.63;;
3543;SDS011;1786;52.870;9.578;2023-07-20T02:32:42;2.20;;;1.90;;
3543;SDS011;1786;52.870;9.578;2023-07-20T02:35:11;5.93;;;1.90;;
3543;SDS011;1786;52.870;9.578;2023-07-20T02:37:38;6.00;;;1.83;;
3543;SDS011;1786;52.870;9.578;2023-07-20T02:40:05;2.33;;;2.20;;
3543;SDS011;1786;52.870;9.578;2023-07-20T02:42:33;2.20;;;2.03;;
3543;SDS011;1786;52.870;9.578;2023-07-20T02:45:01;2.23;;;1.90;;
3543;SDS011;1786;52.870;9.578;2023-07-20T02:47:29;2.17;;;2.07;;
3543;SDS011;1786;52.870;9.578;2023-07-20T02:49:57;2.03;;;2.00;;
3543;SDS011;1786;52.870;9.578;2023-07-20T02:52:25;1.80;;;1.70;;
3543;SDS011;1786;52.870;9.578;2023-07-20T02:54:52;2.77;;;2.47;;
3543;SDS011;1786;52.870;9.578;2023-07-20T02:57:19;2.30;;;1.80;;
3543;SDS011;1786;52.870;9.578;2023-07-20T02:59:45;2.83;;;2.57;;
3543;SDS011;1786;52.870;9.578;2023-07-20T03:02:13;2.73;;;2.63;;
3543;SDS011;1786;52.870;9.578;2023-07-20T03:04:40;2.20;;;2.10;;
3543;SDS011;1786;52.870;9.578;2023-07-20T03:07:07;2.57;;;2.37;;
3543;SDS011;1786;52.870;9.578;2023-07-20T03:09:34;2.47;;;2.40;;
3543;SDS011;1786;52.870;9.578;2023-07-20T03:12:01;2.87;;;2.60;;
3543;SDS011;1786;52.870;9.578;2023-07-20T03:14:29;3.00;;;2.70;;
3543;SDS011;1786;52.870;9.578;2023-07-20T03:16:56;3.20;;;3.10;;
3543;SDS011;1786;52.870;9.578;2023-07-20T03:19:23;5.40;;;3.53;;
3543;SDS011;1786;52.870;9.578;2023-07-20T03:21:50;2.97;;;2.87;;
3543;SDS011;1786;52.870;9.578;2023-07-20T03:24:18;4.37;;;3.87;;
3543;SDS011;1786;52.870;9.578;2023-07-20T03:26:46;3.60;;;3.40;;
3543;SDS011;1786;52.870;9.578;2023-07-20T03:29:14;3.77;;;3.57;;
3543;SDS011;1786;52.870;9.578;2023-07-20T03:31:43;3.83;;;3.63;;
3543;SDS011;1786;52.870;9.578;2023-07-20T03:34:10;4.27;;;4.07;;
3543;SDS011;1786;52.870;9.578;2023-07-20T03:36:39;5.00;;;3.83;;
3543;SDS011;1786;52.870;9.578;2023-07-20T03:39:05;3.80;;;3.53;;
3543;SDS011;1786;52.870;9.578;2023-07-20T03:41:32;3.90;;;3.70;;
3543;SDS011;1786;52.870;9.578;2023-07-20T03:43:59;4.20;;;3.80;;
3543;SDS011;1786;52.870;9.578;2023-07-20T03:46:26;4.60;;;4.30;;
3543;SDS011;1786;52.870;9.578;2023-07-20T03:48:52;3.67;;;3.37;;
3543;SDS011;1786;52.870;9.578;2023-07-20T03:51:19;3.13;;;2.83;;
3543;SDS011;1786;52.870;9.578;2023-07-20T03:53:46;3.97;;;3.53;;
3543;SDS011;1786;52.870;9.578;2023-07-20T03:56:12;3.00;;;2.83;;
3543;SDS011;1786;52.870;9.578;2023-07-20T03:58:39;3.37;;;3.17;;
3543;SDS011;1786;52.870;9.578;2023-07-20T04:01:06;4.37;;;4.03;;
3543;SDS011;1786;52.870;9.578;2023-07-20T04:03:33;5.33;;;4.40;;
3543;SDS011;1786;52.870;9.578;2023-07-20T04:06:00;4.60;;;4.00;;
3543;SDS011;1786;52.870;9.578;2023-07-20T04:08:27;4.67;;;4.37;;
3543;SDS011;1786;52.870;9.578;2023-07-20T04:10:54;4.40;;;3.97;;
3543;SDS011;1786;52.870;9.578;2023-07-20T04:13:21;5.00;;;4.70;;
3543;SDS011;1786;52.870;9.578;2023-07-20T04:15:48;5.63;;;4.53;;
3543;SDS011;1786;52.870;9.578;2023-07-20T04:18:15;4.27;;;3.83;;
3543;SDS011;1786;52.870;9.578;2023-07-20T04:20:41;4.90;;;4.57;;
3543;SDS011;1786;52.870;9.578;2023-07-20T04:23:09;4.87;;;4.47;;
3543;SDS011;1786;52.870;9.578;2023-07-20T04:25:36;4.43;;;4.10;;
3543;SDS011;1786;52.870;9.578;2023-07-20T04:28:10;5.87;;;3.47;;
3543;SDS011;1786;52.870;9.578;2023-07-20T04:30:41;3.37;;;3.07;;
3543;SDS011;1786;52.870;9.578;2023-07-20T04:33:09;3.30;;;2.90;;
3543;SDS011;1786;52.870;9.578;2023-07-20T04:35:46;1.43;;;1.33;;
3543;SDS011;1786;52.870;9.578;2023-07-20T04:38:25;1.00;;;1.00;;
3543;SDS011;1786;52.870;9.578;2023-07-20T04:41:00;0.90;;;0.90;;
3543;SDS011;1786;52.870;9.578;2023-07-20T04:43:29;0.90;;;0.90;;
3543;SDS011;1786;52.870;9.578;2023-07-20T04:45:56;1.00;;;1.00;;
3543;SDS011;1786;52.870;9.578;2023-07-20T04:48:23;0.97;;;0.97;;
3543;SDS011;1786;52.870;9.578;2023-07-20T04:50:52;1.07;;;1.07;;
3543;SDS011;1786;52.870;9.578;2023-07-20T04:53:19;1.20;;;1.20;;
3543;SDS011;1786;52.870;9.578;2023-07-20T04:55:49;1.00;;;1.00;;
3543;SDS011;1786;52.870;9.578;2023-07-20T04:58:23;1.30;;;1.20;;
3543;SDS011;1786;52.870;9.578;2023-07-20T05:00:51;4.10;;;1.03;;
3543;SDS011;1786;52.870;9.578;2023-07-20T05:03:19;1.13;;;1.00;;
3543;SDS011;1786;52.870;9.578;2023-07-20T05:05:46;1.60;;;1.50;;
3543;SDS011;1786;52.870;9.578;2023-07-20T05:08:16;1.40;;;1.40;;
3543;SDS011;1786;52.870;9.578;2023-07-20T05:10:43;1.67;;;1.60;;
3543;SDS011;1786;52.870;9.578;2023-07-20T05:13:10;2.03;;;2.03;;
3543;SDS011;1786;52.870;9.578;2023-07-20T05:15:37;1.90;;;1.90;;
3543;SDS011;1786;52.870;9.578;2023-07-20T05:18:10;1.80;;;1.80;;
3543;SDS011;1786;52.870;9.578;2023-07-20T05:20:36;2.93;;;2.73;;
3543;SDS011;1786;52.870;9.578;2023-07-20T05:23:03;2.90;;;2.70;;
3543;SDS011;1786;52.870;9.578;2023-07-20T05:25:30;3.63;;;3.33;;
3543;SDS011;1786;52.870;9.578;2023-07-20T05:27:57;2.40;;;2.30;;
3543;SDS011;1786;52.870;9.578;2023-07-20T05:30:24;2.60;;;2.50;;
3543;SDS011;1786;52.870;9.578;2023-07-20T05:32:51;2.73;;;2.60;;
3543;SDS011;1786;52.870;9.578;2023-07-20T05:35:19;2.23;;;2.23;;
3543;SDS011;1786;52.870;9.578;2023-07-20T05:37:46;2.27;;;2.27;;
3543;SDS011;1786;52.870;9.578;2023-07-20T05:40:14;2.13;;;2.03;;
3543;SDS011;1786;52.870;9.578;2023-07-20T05:42:47;2.40;;;2.20;;
3543;SDS011;1786;52.870;9.578;2023-07-20T05:45:15;2.10;;;2.00;;
3543;SDS011;1786;52.870;9.578;2023-07-20T05:47:42;1.73;;;1.63;;
3543;SDS011;1786;52.870;9.578;2023-07-20T05:50:09;1.93;;;1.83;;
3543;SDS011;1786;52.870;9.578;2023-07-20T05:52:36;1.60;;;1.60;;
3543;SDS011;1786;52.870;9.578;2023-07-20T05:55:05;1.50;;;1.40;;
3543;SDS011;1786;52.870;9.578;2023-07-20T05:57:33;1.43;;;1.43;;
3543;SDS011;1786;52.870;9.578;2023-07-20T06:00:00;1.23;;;1.13;;
3543;SDS011;1786;52.870;9.578;2023-07-20T06:02:37;2.90;;;1.33;;
3543;SDS011;1786;52.870;9.578;2023-07-20T06:05:04;1.20;;;1.20;;
3543;SDS011;1786;52.870;9.578;2023-07-20T06:07:32;2.50;;;1.50;;
3543;SDS011;1786;52.870;9.578;2023-07-20T06:09:58;1.57;;;1.30;;
3543;SDS011;1786;52.870;9.578;2023-07-20T06:12:25;1.47;;;1.30;;
3543;SDS011;1786;52.870;9.578;2023-07-20T06:14:53;3.23;;;1.77;;
3543;SDS011;1786;52.870;9.578;2023-07-20T06:17:20;1.40;;;1.40;;
3543;SDS011;1786;52.870;9.578;2023-07-20T06:19:47;1.80;;;1.70;;
3543;SDS011;1786;52.870;9.578;2023-07-20T06:22:14;1.90;;;1.70;;
3543;SDS011;1786;52.870;9.578;2023-07-20T06:24:41;1.80;;;1.50;;
3543;SDS011;1786;52.870;9.578;2023-07-20T06:27:07;4.10;;;1.50;;
3543;SDS011;1786;52.870;9.578;2023-07-20T06:29:34;1.63;;;1.50;;
3543;SDS011;1786;52.870;9.578;2023-07-20T06:32:01;3.90;;;1.57;;
3543;SDS011;1786;52.870;9.578;2023-07-20T06:34:28;1.30;;;1.20;;
3543;SDS011;1786;52.870;9.578;2023-07-20T06:36:55;1.70;;;1.60;;
3543;SDS011;1786;52.870;9.578;2023-07-20T06:39:22;1.30;;;1.23;;
3543;SDS011;1786;52.870;9.578;2023-07-20T06:41:52;1.30;;;1.30;;
3543;SDS011;1786;52.870;9.578;2023-07-20T06:44:21;2.93;;;1.47;;
3543;SDS011;1786;52.870;9.578;2023-07-20T06:46:48;3.60;;;1.47;;
3543;SDS011;1786;52.870;9.578;2023-07-20T06:49:27;2.30;;;1.30;;
3543;SDS011;1786;52.870;9.578;2023-07-20T06:51:54;1.90;;;1.37;;
3543;SDS011;1786;52.870;9.578;2023-07-20T06:54:21;3.13;;;1.43;;
3543;SDS011;1786;52.870;9.578;2023-07-20T06:56:49;2.00;;;1.43;;
3543;SDS011;1786;52.870;9.578;2023-07-20T06:59:36;1.13;;;1.00;;
3543;SDS011;1786;52.870;9.578;2023-07-20T07:02:07;1.07;;;1.07;;
3543;SDS011;1786;52.870;9.578;2023-07-20T07:04:40;1.73;;;1.30;;
3543;SDS011;1786;52.870;9.578;2023-07-20T07:07:07;1.17;;;1.17;;
3543;SDS011;1786;52.870;9.578;2023-07-20T07:09:35;1.90;;;1.20;;
3543;SDS011;1786;52.870;9.578;2023-07-20T07:12:03;3.60;;;0.90;;
3543;SDS011;1786;52.870;9.578;2023-07-20T07:14:31;2.10;;;1.03;;
3543;SDS011;1786;52.870;9.578;2023-07-20T07:16:58;1.53;;;1.43;;
3543;SDS011;1786;52.870;9.578;2023-07-20T07:19:31;0.80;;;0.80;;
3543;SDS011;1786;52.870;9.578;2023-07-20T07:21:57;1.03;;;0.90;;
3543;SDS011;1786;52.870;9.578;2023-07-20T07:24:26;1.20;;;1.10;;
3543;SDS011;1786;52.870;9.578;2023-07-20T07:26:55;1.17;;;0.80;;
3543;SDS011;1786;52.870;9.578;2023-07-20T07:29:21;3.50;;;1.10;;
3543;SDS011;1786;52.870;9.578;2023-07-20T07:31:48;1.17;;;1.07;;
3543;SDS011;1786;52.870;9.578;2023-07-20T07:34:15;1.37;;;0.80;;
3543;SDS011;1786;52.870;9.578;2023-07-20T07:36:43;3.83;;;0.90;;
3543;SDS011;1786;52.870;9.578;2023-07-20T07:39:10;3.23;;;1.07;;
3543;SDS011;1786;52.870;9.578;2023-07-20T07:41:40;4.10;;;0.90;;
3543;SDS011;1786;52.870;9.578;2023-07-20T07:44:07;8.47;;;1.17;;
3543;SDS011;1786;52.870;9.578;2023-07-20T07:46:33;0.90;;;0.90;;
3543;SDS011;1786;52.870;9.578;2023-07-20T07:49:00;3.70;;;0.80;;
3543;SDS011;1786;52.870;9.578;2023-07-20T07:51:27;1.97;;;0.70;;
3543;SDS011;1786;52.870;9.578;2023-07-20T07:53:54;1.47;;;0.80;;
3543;SDS011;1786;52.870;9.578;2023-07-20T07:56:21;3.00;;;0.73;;
3543;SDS011;1786;52.870;9.578;2023-07-20T07:58:50;0.77;;;0.77;;
3543;SDS011;1786;52.870;9.578;2023-07-20T08:01:18;0.83;;;0.80;;
3543;SDS011;1786;52.870;9.578;2023-07-20T08:03:45;0.70;;;0.70;;
3543;SDS011;1786;52.870;9.578;2023-07-20T08:06:14;0.87;;;0.73;;
3543;SDS011;1786;52.870;9.578;2023-07-20T08:08:41;3.27;;;1.10;;
3543;SDS011;1786;52.870;9.578;2023-07-20T08:11:08;0.80;;;0.80;;
3543;SDS011;1786;52.870;9.578;2023-07-20T08:13:35;0.60;;;0.60;;
3543;SDS011;1786;52.870;9.578;2023-07-20T08:16:02;3.67;;;0.80;;
3543;SDS011;1786;52.870;9.578;2023-07-20T08:18:29;1.63;;;0.80;;
3543;SDS011;1786;52.870;9.578;2023-07-20T08:20:56;1.00;;;0.70;;
3543;SDS011;1786;52.870;9.578;2023-07-20T08:23:23;0.90;;;0.90;;
3543;SDS011;1786;52.870;9.578;2023-07-20T08:25:50;3.40;;;0.77;;
3543;SDS011;1786;52.870;9.578;2023-07-20T08:28:17;4.60;;;0.80;;
3543;SDS011;1786;52.870;9.578;2023-07-20T08:30:44;7.40;;;0.80;;
3543;SDS011;1786;52.870;9.578;2023-07-20T08:33:13;2.20;;;0.70;;
3543;SDS011;1786;52.870;9.578;2023-07-20T08:35:41;0.80;;;0.80;;
3543;SDS011;1786;52.870;9.578;2023-07-20T08:38:08;0.60;;;0.60;;
3543;SDS011;1786;52.870;9.578;2023-07-20T08:40:39;2.93;;;0.97;;
3543;SDS011;1786;52.870;9.578;2023-07-20T08:43:07;1.93;;;1.07;;
3543;SDS011;1786;52.870;9.578;2023-07-20T08:45:34;0.70;;;0.70;;
3543;SDS011;1786;52.870;9.578;2023-07-20T08:48:04;2.30;;;0.87;;
3543;SDS011;1786;52.870;9.578;2023-07-20T08:50:32;1.07;;;0.80;;
3543;SDS011;1786;52.870;9.578;2023-07-20T08:53:00;0.97;;;0.70;;
3543;SDS011;1786;52.870;9.578;2023-07-20T08:55:29;0.80;;;0.80;;
3543;SDS011;1786;52.870;9.578;2023-07-20T08:57:57;5.73;;;0.70;;
3543;SDS011;1786;52.870;9.578;2023-07-20T09:00:25;0.67;;;0.67;;
3543;SDS011;1786;52.870;9.578;2023-07-20T09:02:53;1.70;;;0.97;;
3543;SDS011;1786;52.870;9.578;2023-07-20T09:05:21;0.80;;;0.80;;
3543;SDS011;1786;52.870;9.578;2023-07-20T09:07:52;0.80;;;0.80;;
3543;SDS011;1786;52.870;9.578;2023-07-20T09:10:20;3.40;;;0.70;;
3543;SDS011;1786;52.870;9.578;2023-07-20T09:12:48;0.73;;;0.73;;
3543;SDS011;1786;52.870;9.578;2023-07-20T09:15:15;1.07;;;0.97;;
3543;SDS011;1786;52.870;9.578;2023-07-20T09:17:46;2.77;;;1.00;;
3543;SDS011;1786;52.870;9.578;2023-07-20T09:20:14;2.20;;;0.97;;
3543;SDS011;1786;52.870;9.578;2023-07-20T09:22:44;0.73;;;0.73;;
3543;SDS011;1786;52.870;9.578;2023-07-20T09:25:14;1.33;;;1.10;;
3543;SDS011;1786;52.870;9.578;2023-07-20T09:27:43;3.50;;;1.00;;
3543;SDS011;1786;52.870;9.578;2023-07-20T09:30:15;0.60;;;0.60;;
3543;SDS011;1786;52.870;9.578;2023-07-20T09:32:45;3.70;;;0.80;;
3543;SDS011;1786;52.870;9.578;2023-07-20T09:35:17;0.60;;;0.60;;
3543;SDS011;1786;52.870;9.578;2023-07-20T09:37:57;1.07;;;0.97;;
3543;SDS011;1786;52.870;9.578;2023-07-20T09:40:28;4.23;;;0.90;;
3543;SDS011;1786;52.870;9.578;2023-07-20T09:42:58;1.33;;;0.97;;
3543;SDS011;1786;52.870;9.578;2023-07-20T09:45:33;3.03;;;1.40;;
3543;SDS011;1786;52.870;9.578;2023-07-20T09:48:23;1.03;;;0.93;;
3543;SDS011;1786;52.870;9.578;2023-07-20T09:50:53;3.13;;;1.30;;
3543;SDS011;1786;52.870;9.578;2023-07-20T09:53:21;1.43;;;1.07;;
3543;SDS011;1786;52.870;9.578;2023-07-20T09:55:51;4.53;;;1.10;;
3543;SDS011;1786;52.870;9.578;2023-07-20T09:58:18;1.17;;;1.13;;
3543;SDS011;1786;52.870;9.578;2023-07-20T10:00:45;1.10;;;1.00;;
3543;SDS011;1786;52.870;9.578;2023-07-20T10:03:19;1.73;;;1.20;;
3543;SDS011;1786;52.870;9.578;2023-07-20T10:05:49;1.57;;;1.20;;
3543;SDS011;1786;52.870;9.578;2023-07-20T10:08:20;3.63;;;1.27;;
3543;SDS011;1786;52.870;9.578;2023-07-20T10:10:53;4.90;;;1.17;;
3543;SDS011;1786;52.870;9.578;2023-07-20T10:13:27;1.23;;;1.13;;
3543;SDS011;1786;52.870;9.578;2023-07-20T10:16:02;1.90;;;1.30;;
3543;SDS011;1786;52.870;9.578;2023-07-20T10:18:35;2.73;;;1.27;;
3543;SDS011;1786;52.870;9.578;2023-07-20T10:21:14;2.00;;;1.30;;
3543;SDS011;1786;52.870;9.578;2023-07-20T10:23:47;3.10;;;1.30;;
3543;SDS011;1786;52.870;9.578;2023-07-20T10:26:14;4.60;;;1.60;;
3543;SDS011;1786;52.870;9.578;2023-07-20T10:28:40;2.83;;;1.30;;
3543;SDS011;1786;52.870;9.578;2023-07-20T10:31:08;2.20;;;1.20;;
3543;SDS011;1786;52.870;9.578;2023-07-20T10:33:37;1.30;;;1.20;;
3543;SDS011;1786;52.870;9.578;2023-07-20T10:36:05;4.30;;;1.20;;
3543;SDS011;1786;52.870;9.578;2023-07-20T10:43:55;1.03;;;1.03;;
3543;SDS011;1786;52.870;9.578;2023-07-20T10:46:34;3.23;;;1.10;;
3543;SDS011;1786;52.870;9.578;2023-07-20T10:49:10;2.07;;;1.50;;
3543;SDS011;1786;52.870;9.578;2023-07-20T10:51:41;5.17;;;1.30;;
3543;SDS011;1786;52.870;9.578;2023-07-20T10:54:11;1.27;;;0.90;;
3543;SDS011;1786;52.870;9.578;2023-07-20T10:59:50;2.73;;;0.80;;
3543;SDS011;1786;52.870;9.578;2023-07-20T11:02:17;0.97;;;0.97;;
3543;SDS011;1786;52.870;9.578;2023-07-20T11:04:47;1.33;;;0.93;;
3543;SDS011;1786;52.870;9.578;2023-07-20T11:07:15;2.27;;;1.37;;
3543;SDS011;1786;52.870;9.578;2023-07-20T11:09:45;1.17;;;1.07;;
3543;SDS011;1786;52.870;9.578;2023-07-20T11:12:16;0.80;;;0.80;;
3543;SDS011;1786;52.870;9.578;2023-07-20T11:14:54;1.20;;;1.20;;
3543;SDS011;1786;52.870;9.578;2023-07-20T11:17:29;1.70;;;1.20;;
3543;SDS011;1786;52.870;9.578;2023-07-20T11:19:57;2.43;;;1.40;;
3543;SDS011;1786;52.870;9.578;2023-07-20T11:22:33;2.47;;;1.10;;
3543;SDS011;1786;52.870;9.578;2023-07-20T11:25:00;1.27;;;1.10;;
3543;SDS011;1786;52.870;9.578;2023-07-20T11:27:27;2.30;;;1.10;;
3543;SDS011;1786;52.870;9.578;2023-07-20T11:29:55;2.10;;;1.20;;
3543;SDS011;1786;52.870;9.578;2023-07-20T11:32:23;1.30;;;1.20;;
3543;SDS011;1786;52.870;9.578;2023-07-20T11:34:51;2.57;;;1.00;;
3543;SDS011;1786;52.870;9.578;2023-07-20T11:37:18;1.33;;;1.07;;
3543;SDS011;1786;52.870;9.578;2023-07-20T11:39:45;1.00;;;1.00;;
3543;SDS011;1786;52.870;9.578;2023-07-20T11:42:13;3.27;;;1.47;;
3543;SDS011;1786;52.870;9.578;2023-07-20T11:45:02;2.30;;;1.50;;
3543;SDS011;1786;52.870;9.578;2023-07-20T11:47:32;2.77;;;1.30;;
3543;SDS011;1786;52.870;9.578;2023-07-20T11:50:03;3.80;;;1.60;;
3543;SDS011;1786;52.870;9.578;2023-07-20T11:52:30;3.77;;;1.40;;
3543;SDS011;1786;52.870;9.578;2023-07-20T11:54:57;2.40;;;1.47;;
3543;SDS011;1786;52.870;9.578;2023-07-20T11:57:25;1.87;;;1.77;;
3543;SDS011;1786;52.870;9.578;2023-07-20T11:59:52;1.73;;;1.43;;
3543;SDS011;1786;52.870;9.578;2023-07-20T12:02:23;2.30;;;1.47;;
3543;SDS011;1786;52.870;9.578;2023-07-20T12:04:52;1.73;;;1.70;;
3543;SDS011;1786;52.870;9.578;2023-07-20T12:07:20;2.30;;;1.60;;
3543;SDS011;1786;52.870;9.578;2023-07-20T12:12:34;3.07;;;1.37;;
3543;SDS011;1786;52.870;9.578;2023-07-20T12:15:17;2.40;;;1.10;;
3543;SDS011;1786;52.870;9.578;2023-07-20T12:17:44;1.50;;;1.40;;
3543;SDS011;1786;52.870;9.578;2023-07-20T12:20:12;6.10;;;1.20;;
3543;SDS011;1786;52.870;9.578;2023-07-20T12:22:42;2.80;;;1.03;;
3543;SDS011;1786;52.870;9.578;2023-07-20T12:25:10;2.00;;;1.17;;
3543;SDS011;1786;52.870;9.578;2023-07-20T12:27:36;0.83;;;0.83;;
3543;SDS011;1786;52.870;9.578;2023-07-20T12:30:07;1.03;;;1.00;;
3543;SDS011;1786;52.870;9.578;2023-07-20T12:32:34;3.40;;;1.23;;
3543;SDS011;1786;52.870;9.578;2023-07-20T12:35:01;1.83;;;1.60;;
3543;SDS011;1786;52.870;9.578;2023-07-20T12:37:28;1.03;;;0.93;;
3543;SDS011;1786;52.870;9.578;2023-07-20T12:39:55;1.30;;;1.20;;
3543;SDS011;1786;52.870;9.578;2023-07-20T12:42:22;1.37;;;0.90;;
3543;SDS011;1786;52.870;9.578;2023-07-20T12:44:49;1.13;;;1.13;;
3543;SDS011;1786;52.870;9.578;2023-07-20T12:47:17;0.80;;;0.80;;
3543;SDS011;1786;52.870;9.578;2023-07-20T12:49:45;1.37;;;0.90;;
3543;SDS011;1786;52.870;9.578;2023-07-20T12:52:13;0.70;;;0.70;;
3543;SDS011;1786;52.870;9.578;2023-07-20T12:54:40;1.07;;;1.07;;
3543;SDS011;1786;52.870;9.578;2023-07-20T12:57:06;2.40;;;1.20;;
3543;SDS011;1786;52.870;9.578;2023-07-20T12:59:36;1.43;;;1.20;;
3543;SDS011;1786;52.870;9.578;2023-07-20T13:02:03;1.27;;;1.27;;
3543;SDS011;1786;52.870;9.578;2023-07-20T13:04:30;1.20;;;0.97;;
3543;SDS011;1786;52.870;9.578;2023-07-20T13:06:57;1.00;;;1.00;;
3543;SDS011;1786;52.870;9.578;2023-07-20T13:09:25;0.90;;;0.90;;
3543;SDS011;1786;52.870;9.578;2023-07-20T13:11:51;0.90;;;0.90;;
3543;SDS011;1786;52.870;9.578;2023-07-20T13:14:19;1.10;;;1.10;;
3543;SDS011;1786;52.870;9.578;2023-07-20T13:16:46;1.37;;;1.30;;
3543;SDS011;1786;52.870;9.578;2023-07-20T13:19:12;1.40;;;1.30;;
3543;SDS011;1786;52.870;9.578;2023-07-20T13:21:40;6.27;;;1.13;;
3543;SDS011;1786;52.870;9.578;2023-07-20T13:24:06;2.30;;;1.20;;
3543;SDS011;1786;52.870;9.578;2023-07-20T13:26:33;2.10;;;1.33;;
3543;SDS011;1786;52.870;9.578;2023-07-20T13:29:02;1.37;;;0.87;;
3543;SDS011;1786;52.870;9.578;2023-07-20T13:31:29;1.10;;;1.10;;
3543;SDS011;1786;52.870;9.578;2023-07-20T13:33:59;1.00;;;1.00;;
3543;SDS011;1786;52.870;9.578;2023-07-20T13:36:29;1.00;;;1.00;;
3543;SDS011;1786;52.870;9.578;2023-07-20T13:38:56;1.43;;;1.33;;
3543;SDS011;1786;52.870;9.578;2023-07-20T13:41:23;1.17;;;1.10;;
3543;SDS011;1786;52.870;9.578;2023-07-20T13:43:50;2.00;;;1.10;;
3543;SDS011;1786;52.870;9.578;2023-07-20T13:46:17;3.57;;;1.13;;
3543;SDS011;1786;52.870;9.578;2023-07-20T13:49:04;1.27;;;1.10;;
3543;SDS011;1786;52.870;9.578;2023-07-20T13:51:39;1.47;;;1.10;;
3543;SDS011;1786;52.870;9.578;2023-07-20T13:54:06;1.70;;;1.03;;
3543;SDS011;1786;52.870;9.578;2023-07-20T13:56:36;0.90;;;0.83;;
3543;SDS011;1786;52.870;9.578;2023-07-20T13:59:04;3.27;;;1.00;;
3543;SDS011;1786;52.870;9.578;2023-07-20T14:01:32;1.30;;;1.20;;
3543;SDS011;1786;52.870;9.578;2023-07-20T14:04:03;1.73;;;1.20;;
3543;SDS011;1786;52.870;9.578;2023-07-20T14:06:31;1.73;;;1.10;;
3543;SDS011;1786;52.870;9.578;2023-07-20T14:08:59;5.07;;;1.20;;
3543;SDS011;1786;52.870;9.578;2023-07-20T14:11:26;2.70;;;1.10;;
3543;SDS011;1786;52.870;9.578;2023-07-20T14:13:56;1.67;;;0.97;;
3543;SDS011;1786;52.870;9.578;2023-07-20T14:16:25;0.93;;;0.90;;
3543;SDS011;1786;52.870;9.578;2023-07-20T14:18:52;1.37;;;1.27;;
3543;SDS011;1786;52.870;9.578;2023-07-20T14:21:19;3.13;;;1.40;;
3543;SDS011;1786;52.870;9.578;2023-07-20T14:23:47;2.63;;;0.97;;
3543;SDS011;1786;52.870;9.578;2023-07-20T14:26:19;5.50;;;1.43;;
3543;SDS011;1786;52.870;9.578;2023-07-20T14:28:48;1.40;;;1.30;;
3543;SDS011;1786;52.870;9.578;2023-07-20T14:31:15;4.30;;;1.20;;
3543;SDS011;1786;52.870;9.578;2023-07-20T14:33:42;1.10;;;1.00;;
3543;SDS011;1786;52.870;9.578;2023-07-20T14:36:09;2.53;;;1.30;;
3543;SDS011;1786;52.870;9.578;2023-07-20T14:38:37;1.93;;;1.17;;
3543;SDS011;1786;52.870;9.578;2023-07-20T14:41:04;1.80;;;1.23;;
3543;SDS011;1786;52.870;9.578;2023-07-20T14:43:33;1.13;;;1.10;;
3543;SDS011;1786;52.870;9.578;2023-07-20T14:46:00;2.10;;;1.20;;
3543;SDS011;1786;52.870;9.578;2023-07-20T14:48:26;2.93;;;1.17;;
3543;SDS011;1786;52.870;9.578;2023-07-20T14:50:53;1.00;;;1.00;;
3543;SDS011;1786;52.870;9.578;2023-07-20T14:53:30;6.00;;;1.30;;
3543;SDS011;1786;52.870;9.578;2023-07-20T14:56:00;3.70;;;1.30;;
3543;SDS011;1786;52.870;9.578;2023-07-20T14:58:27;2.07;;;1.20;;
3543;SDS011;1786;52.870;9.578;2023-07-20T15:00:54;2.03;;;1.13;;
3543;SDS011;1786;52.870;9.578;2023-07-20T15:03:21;1.30;;;1.10;;
3543;SDS011;1786;52.870;9.578;2023-07-20T15:05:48;1.20;;;0.87;;
3543;SDS011;1786;52.870;9.578;2023-07-20T15:08:14;1.30;;;1.20;;
3543;SDS011;1786;52.870;9.578;2023-07-20T15:10:41;3.13;;;1.30;;
3543;SDS011;1786;52.870;9.578;2023-07-20T15:13:08;5.17;;;1.80;;
3543;SDS011;1786;52.870;9.578;2023-07-20T15:15:35;1.57;;;1.20;;
3543;SDS011;1786;52.870;9.578;2023-07-20T15:18:01;1.27;;;1.20;;
3543;SDS011;1786;52.870;9.578;2023-07-20T15:20:28;2.00;;;1.00;;
3543;SDS011;1786;52.870;9.578;2023-07-20T15:22:58;3.07;;;1.20;;
3543;SDS011;1786;52.870;9.578;2023-07-20T15:25:25;4.00;;;0.93;;
3543;SDS011;1786;52.870;9.578;2023-07-20T15:27:52;1.37;;;1.27;;
3543;SDS011;1786;52.870;9.578;2023-07-20T15:30:20;4.23;;;1.47;;
3543;SDS011;1786;52.870;9.578;2023-07-20T15:32:51;1.80;;;1.10;;
3543;SDS011;1786;52.870;9.578;2023-07-20T15:35:20;0.73;;;0.73;;
3543;SDS011;1786;52.870;9.578;2023-07-20T15:37:47;5.43;;;1.50;;